sensor_id;sensor_type;location;lat;lon;timestamp;temperature;humidity
31765;DHT22;18338;53.240;8.798;2024-03-25T00:01:33;5.20;99.90
31765;DHT22;18338;53.240;8.798;2024-03-25T00:04:00;5.20;99.90
31765;DHT22;18338;53.240;8.798;2024-03-25T00:06:25;5.30;99.90
31765;DHT22;18338;53.240;8.798;2024-03-25T00:08:51;5.30;99.90
31765;DHT22;18338;53.240;8.798;2024-03-25T00:11:17;5.30;99.90
31765;DHT22;18338;53.240;8.798;2024-03-25T00:13:43;5.30;99.90
31765;DHT22;18338;53.240;8.798;2024-03-25T00:16:09;5.30;99.90
31765;DHT22;18338;53.240;8.798;2024-03-25T00:18:35;5.30;99.90
31765;DHT22;18338;53.240;8.798;2024-03-25T00:21:00;5.30;99.90
31765;DHT22;18338;53.240;8.798;2024-03-25T00:23:26;5.20;99.90
31765;DHT22;18338;53.240;8.798;2024-03-25T00:25:52;5.20;99.90
31765;DHT22;18338;53.240;8.798;2024-03-25T00:28:18;5.10;99.90
31765;DHT22;18338;53.240;8.798;2024-03-25T00:30:45;5.10;99.90
31765;DHT22;18338;53.240;8.798;2024-03-25T00:33:11;5.10;99.90
31765;DHT22;18338;53.240;8.798;2024-03-25T00:35:37;5.10;99.90
31765;DHT22;18338;53.240;8.798;2024-03-25T00:38:03;5.00;99.90
31765;DHT22;18338;53.240;8.798;2024-03-25T00:40:30;5.00;99.90
31765;DHT22;18338;53.240;8.798;2024-03-25T00:42:56;5.00;99.90
31765;DHT22;18338;53.240;8.798;2024-03-25T00:45:21;4.90;99.90
31765;DHT22;18338;53.240;8.798;2024-03-25T00:47:47;5.00;99.90
31765;DHT22;18338;53.240;8.798;2024-03-25T00:50:14;5.00;99.90
31765;DHT22;18338;53.240;8.798;2024-03-25T00:52:40;5.00;99.90
31765;DHT22;18338;53.240;8.798;2024-03-25T00:55:06;5.00;99.90
31765;DHT22;18338;53.240;8.798;2024-03-25T00:57:33;4.90;99.90
31765;DHT22;18338;53.240;8.798;2024-03-25T00:59:59;4.80;99.90
31765;DHT22;18338;53.240;8.798;2024-03-25T01:02:25;4.90;99.90
31765;DHT22;18338;53.240;8.798;2024-03-25T01:04:52;4.90;99.90
31765;DHT22;18338;53.240;8.798;2024-03-25T01:07:20;5.00;99.90
31765;DHT22;18338;53.240;8.798;2024-03-25T01:09:45;5.00;99.90
31765;DHT22;18338;53.240;8.798;2024-03-25T01:12:11;5.10;99.90
31765;DHT22;18338;53.240;8.798;2024-03-25T01:14:37;5.10;99.90
31765;DHT22;18338;53.240;8.798;2024-03-25T01:17:03;5.10;99.90
31765;DHT22;18338;53.240;8.798;2024-03-25T01:19:29;5.20;99.90
31765;DHT22;18338;53.240;8.798;2024-03-25T01:21:54;5.20;99.90
31765;DHT22;18338;53.240;8.798;2024-03-25T01:24:20;5.20;99.90
31765;DHT22;18338;53.240;8.798;2024-03-25T01:26:46;5.20;99.90
31765;DHT22;18338;53.240;8.798;2024-03-25T01:29:12;5.20;99.90
31765;DHT22;18338;53.240;8.798;2024-03-25T01:31:38;5.20;99.90
31765;DHT22;18338;53.240;8.798;2024-03-25T01:34:03;5.10;99.90
31765;DHT22;18338;53.240;8.798;2024-03-25T01:36:29;5.10;99.90
31765;DHT22;18338;53.240;8.798;2024-03-25T01:38:55;4.90;99.90
31765;DHT22;18338;53.240;8.798;2024-03-25T01:41:22;4.80;99.90
31765;DHT22;18338;53.240;8.798;2024-03-25T01:43:48;4.60;99.90
31765;DHT22;18338;53.240;8.798;2024-03-25T01:46:15;4.60;99.90
31765;DHT22;18338;53.240;8.798;2024-03-25T01:48:42;4.50;99.90
31765;DHT22;18338;53.240;8.798;2024-03-25T01:51:09;4.50;99.90
31765;DHT22;18338;53.240;8.798;2024-03-25T01:53:35;4.50;99.90
31765;DHT22;18338;53.240;8.798;2024-03-25T01:56:02;4.50;99.90
31765;DHT22;18338;53.240;8.798;2024-03-25T01:58:29;4.50;99.90
31765;DHT22;18338;53.240;8.798;2024-03-25T02:00:56;4.50;99.90
31765;DHT22;18338;53.240;8.798;2024-03-25T02:03:23;4.40;99.90
31765;DHT22;18338;53.240;8.798;2024-03-25T02:05:55;4.30;99.90
31765;DHT22;18338;53.240;8.798;2024-03-25T02:08:22;4.30;99.90
31765;DHT22;18338;53.240;8.798;2024-03-25T02:10:49;4.30;99.90
31765;DHT22;18338;53.240;8.798;2024-03-25T02:13:16;4.30;99.90
31765;DHT22;18338;53.240;8.798;2024-03-25T02:15:42;4.40;99.90
31765;DHT22;18338;53.240;8.798;2024-03-25T02:18:08;4.40;99.90
31765;DHT22;18338;53.240;8.798;2024-03-25T02:20:34;4.40;99.90
31765;DHT22;18338;53.240;8.798;2024-03-25T02:22:59;4.40;99.90
31765;DHT22;18338;53.240;8.798;2024-03-25T02:25:25;4.40;99.90
31765;DHT22;18338;53.240;8.798;2024-03-25T02:27:51;4.50;99.90
31765;DHT22;18338;53.240;8.798;2024-03-25T02:30:17;4.60;99.90
31765;DHT22;18338;53.240;8.798;2024-03-25T02:32:43;4.60;99.90
31765;DHT22;18338;53.240;8.798;2024-03-25T02:35:12;4.70;99.90
31765;DHT22;18338;53.240;8.798;2024-03-25T02:37:39;4.80;99.90
31765;DHT22;18338;53.240;8.798;2024-03-25T02:40:05;4.80;99.90
31765;DHT22;18338;53.240;8.798;2024-03-25T02:42:33;4.80;99.90
31765;DHT22;18338;53.240;8.798;2024-03-25T02:44:59;4.80;99.90
31765;DHT22;18338;53.240;8.798;2024-03-25T02:47:25;4.80;99.90
31765;DHT22;18338;53.240;8.798;2024-03-25T02:49:51;4.90;99.90
31765;DHT22;18338;53.240;8.798;2024-03-25T02:52:18;4.90;99.90
31765;DHT22;18338;53.240;8.798;2024-03-25T02:54:43;5.00;99.90
31765;DHT22;18338;53.240;8.798;2024-03-25T02:57:09;5.00;99.90
31765;DHT22;18338;53.240;8.798;2024-03-25T02:59:35;5.00;99.90
31765;DHT22;18338;53.240;8.798;2024-03-25T03:02:01;5.00;99.90
31765;DHT22;18338;53.240;8.798;2024-03-25T03:04:27;5.00;99.90
31765;DHT22;18338;53.240;8.798;2024-03-25T03:06:52;5.00;99.90
31765;DHT22;18338;53.240;8.798;2024-03-25T03:09:18;5.00;99.90
31765;DHT22;18338;53.240;8.798;2024-03-25T03:11:44;5.00;99.90
31765;DHT22;18338;53.240;8.798;2024-03-25T03:14:10;5.00;99.90
31765;DHT22;18338;53.240;8.798;2024-03-25T03:16:35;5.00;99.90
31765;DHT22;18338;53.240;8.798;2024-03-25T03:19:01;5.00;99.90
31765;DHT22;18338;53.240;8.798;2024-03-25T03:21:27;5.00;99.90
31765;DHT22;18338;53.240;8.798;2024-03-25T03:23:53;5.00;99.90
31765;DHT22;18338;53.240;8.798;2024-03-25T03:26:19;5.10;99.90
31765;DHT22;18338;53.240;8.798;2024-03-25T03:28:44;5.10;99.90
31765;DHT22;18338;53.240;8.798;2024-03-25T03:31:10;5.10;99.90
31765;DHT22;18338;53.240;8.798;2024-03-25T03:33:36;5.10;99.90
31765;DHT22;18338;53.240;8.798;2024-03-25T03:36:02;5.00;99.90
31765;DHT22;18338;53.240;8.798;2024-03-25T03:38:27;5.10;99.90
31765;DHT22;18338;53.240;8.798;2024-03-25T03:41:03;5.10;99.90
31765;DHT22;18338;53.240;8.798;2024-03-25T03:43:32;5.10;99.90
31765;DHT22;18338;53.240;8.798;2024-03-25T03:45:58;5.10;99.90
31765;DHT22;18338;53.240;8.798;2024-03-25T03:48:23;5.10;99.90
31765;DHT22;18338;53.240;8.798;2024-03-25T03:50:49;5.00;99.90
31765;DHT22;18338;53.240;8.798;2024-03-25T03:53:15;5.00;99.90
31765;DHT22;18338;53.240;8.798;2024-03-25T03:55:40;5.00;99.90
31765;DHT22;18338;53.240;8.798;2024-03-25T03:58:06;5.00;99.90
31765;DHT22;18338;53.240;8.798;2024-03-25T04:00:35;5.00;99.90
31765;DHT22;18338;53.240;8.798;2024-03-25T04:03:01;5.00;99.90
31765;DHT22;18338;53.240;8.798;2024-03-25T04:05:29;4.90;99.90
31765;DHT22;18338;53.240;8.798;2024-03-25T04:07:55;4.80;99.90
31765;DHT22;18338;53.240;8.798;2024-03-25T04:10:23;4.90;99.90
31765;DHT22;18338;53.240;8.798;2024-03-25T04:12:49;4.70;99.90
31765;DHT22;18338;53.240;8.798;2024-03-25T04:15:15;4.70;99.90
31765;DHT22;18338;53.240;8.798;2024-03-25T04:17:44;4.70;99.90
31765;DHT22;18338;53.240;8.798;2024-03-25T04:20:11;4.70;99.90
31765;DHT22;18338;53.240;8.798;2024-03-25T04:22:41;4.70;99.90
31765;DHT22;18338;53.240;8.798;2024-03-25T04:25:08;4.80;99.90
31765;DHT22;18338;53.240;8.798;2024-03-25T04:27:38;4.80;99.90
31765;DHT22;18338;53.240;8.798;2024-03-25T04:30:05;4.80;99.90
31765;DHT22;18338;53.240;8.798;2024-03-25T04:32:32;4.70;99.90
31765;DHT22;18338;53.240;8.798;2024-03-25T04:34:58;4.70;99.90
31765;DHT22;18338;53.240;8.798;2024-03-25T04:37:24;4.70;99.90
31765;DHT22;18338;53.240;8.798;2024-03-25T04:39:49;4.60;99.90
31765;DHT22;18338;53.240;8.798;2024-03-25T04:42:15;4.60;99.90
31765;DHT22;18338;53.240;8.798;2024-03-25T04:44:41;4.60;99.90
31765;DHT22;18338;53.240;8.798;2024-03-25T04:47:06;4.60;99.90
31765;DHT22;18338;53.240;8.798;2024-03-25T04:49:32;4.50;99.90
31765;DHT22;18338;53.240;8.798;2024-03-25T04:51:58;4.60;99.90
31765;DHT22;18338;53.240;8.798;2024-03-25T04:54:24;4.60;99.90
31765;DHT22;18338;53.240;8.798;2024-03-25T04:56:49;4.70;99.90
31765;DHT22;18338;53.240;8.798;2024-03-25T04:59:15;4.60;99.90
31765;DHT22;18338;53.240;8.798;2024-03-25T05:01:41;4.60;99.90
31765;DHT22;18338;53.240;8.798;2024-03-25T05:04:06;4.50;99.90
31765;DHT22;18338;53.240;8.798;2024-03-25T05:06:35;4.50;99.90
31765;DHT22;18338;53.240;8.798;2024-03-25T05:09:01;4.60;99.90
31765;DHT22;18338;53.240;8.798;2024-03-25T05:11:27;4.60;99.90
31765;DHT22;18338;53.240;8.798;2024-03-25T05:13:52;4.60;99.90
31765;DHT22;18338;53.240;8.798;2024-03-25T05:16:18;4.70;99.90
31765;DHT22;18338;53.240;8.798;2024-03-25T05:18:44;4.70;99.90
31765;DHT22;18338;53.240;8.798;2024-03-25T05:21:09;4.70;99.90
31765;DHT22;18338;53.240;8.798;2024-03-25T05:23:35;4.70;99.90
31765;DHT22;18338;53.240;8.798;2024-03-25T05:26:01;4.70;99.90
31765;DHT22;18338;53.240;8.798;2024-03-25T05:28:26;4.70;99.90
31765;DHT22;18338;53.240;8.798;2024-03-25T05:30:52;4.60;99.90
31765;DHT22;18338;53.240;8.798;2024-03-25T05:33:18;4.70;99.90
31765;DHT22;18338;53.240;8.798;2024-03-25T05:35:44;4.70;99.90
31765;DHT22;18338;53.240;8.798;2024-03-25T05:38:09;4.70;99.90
31765;DHT22;18338;53.240;8.798;2024-03-25T05:40:35;4.70;99.90
31765;DHT22;18338;53.240;8.798;2024-03-25T05:43:02;4.80;99.90
31765;DHT22;18338;53.240;8.798;2024-03-25T05:45:27;4.90;99.90
31765;DHT22;18338;53.240;8.798;2024-03-25T05:47:53;4.90;99.90
31765;DHT22;18338;53.240;8.798;2024-03-25T05:50:19;4.90;99.90
31765;DHT22;18338;53.240;8.798;2024-03-25T05:52:45;4.90;99.90
31765;DHT22;18338;53.240;8.798;2024-03-25T05:55:10;5.00;99.90
31765;DHT22;18338;53.240;8.798;2024-03-25T05:57:36;5.00;99.90
31765;DHT22;18338;53.240;8.798;2024-03-25T06:00:03;5.00;99.90
31765;DHT22;18338;53.240;8.798;2024-03-25T06:02:29;5.00;99.90
31765;DHT22;18338;53.240;8.798;2024-03-25T06:04:56;5.10;99.90
31765;DHT22;18338;53.240;8.798;2024-03-25T06:07:22;5.10;99.90
31765;DHT22;18338;53.240;8.798;2024-03-25T06:09:48;5.10;99.90
31765;DHT22;18338;53.240;8.798;2024-03-25T06:12:13;5.20;99.90
31765;DHT22;18338;53.240;8.798;2024-03-25T06:14:39;5.20;99.90
31765;DHT22;18338;53.240;8.798;2024-03-25T06:17:05;5.20;99.90
31765;DHT22;18338;53.240;8.798;2024-03-25T06:19:31;5.20;99.90
31765;DHT22;18338;53.240;8.798;2024-03-25T06:21:57;5.30;99.90
31765;DHT22;18338;53.240;8.798;2024-03-25T06:24:23;5.30;99.90
31765;DHT22;18338;53.240;8.798;2024-03-25T06:26:49;5.30;99.90
31765;DHT22;18338;53.240;8.798;2024-03-25T06:29:15;5.30;99.90
31765;DHT22;18338;53.240;8.798;2024-03-25T06:31:40;5.40;99.90
31765;DHT22;18338;53.240;8.798;2024-03-25T06:34:25;5.40;99.90
31765;DHT22;18338;53.240;8.798;2024-03-25T06:36:51;5.40;99.90
31765;DHT22;18338;53.240;8.798;2024-03-25T06:39:16;5.50;99.90
31765;DHT22;18338;53.240;8.798;2024-03-25T06:41:42;5.60;99.90
31765;DHT22;18338;53.240;8.798;2024-03-25T06:44:08;5.60;99.90
31765;DHT22;18338;53.240;8.798;2024-03-25T06:46:34;5.60;99.90
31765;DHT22;18338;53.240;8.798;2024-03-25T06:49:00;5.70;99.90
31765;DHT22;18338;53.240;8.798;2024-03-25T06:51:26;5.70;99.90
31765;DHT22;18338;53.240;8.798;2024-03-25T06:53:52;5.80;99.90
31765;DHT22;18338;53.240;8.798;2024-03-25T06:56:18;5.80;99.90
31765;DHT22;18338;53.240;8.798;2024-03-25T06:58:44;5.80;99.90
31765;DHT22;18338;53.240;8.798;2024-03-25T07:01:10;5.90;99.90
31765;DHT22;18338;53.240;8.798;2024-03-25T07:03:39;6.00;99.90
31765;DHT22;18338;53.240;8.798;2024-03-25T07:06:05;6.10;99.90
31765;DHT22;18338;53.240;8.798;2024-03-25T07:08:31;6.20;99.90
31765;DHT22;18338;53.240;8.798;2024-03-25T07:10:57;6.20;99.90
31765;DHT22;18338;53.240;8.798;2024-03-25T07:13:23;6.30;99.90
31765;DHT22;18338;53.240;8.798;2024-03-25T07:15:49;6.20;99.90
31765;DHT22;18338;53.240;8.798;2024-03-25T07:18:17;6.40;99.90
31765;DHT22;18338;53.240;8.798;2024-03-25T07:20:44;6.60;99.90
31765;DHT22;18338;53.240;8.798;2024-03-25T07:23:10;6.80;99.90
31765;DHT22;18338;53.240;8.798;2024-03-25T07:25:36;6.90;99.90
31765;DHT22;18338;53.240;8.798;2024-03-25T07:28:03;6.80;99.90
31765;DHT22;18338;53.240;8.798;2024-03-25T07:30:28;6.70;99.90
31765;DHT22;18338;53.240;8.798;2024-03-25T07:32:55;6.60;99.90
31765;DHT22;18338;53.240;8.798;2024-03-25T07:35:21;6.70;99.90
31765;DHT22;18338;53.240;8.798;2024-03-25T07:37:47;6.80;99.90
31765;DHT22;18338;53.240;8.798;2024-03-25T07:40:12;6.70;99.90
31765;DHT22;18338;53.240;8.798;2024-03-25T07:42:38;6.60;99.90
31765;DHT22;18338;53.240;8.798;2024-03-25T07:45:05;6.70;99.90
31765;DHT22;18338;53.240;8.798;2024-03-25T07:47:32;7.20;99.90
31765;DHT22;18338;53.240;8.798;2024-03-25T07:49:58;7.50;99.90
31765;DHT22;18338;53.240;8.798;2024-03-25T07:52:25;8.00;99.90
31765;DHT22;18338;53.240;8.798;2024-03-25T07:54:51;8.20;99.90
31765;DHT22;18338;53.240;8.798;2024-03-25T07:57:20;8.30;99.90
31765;DHT22;18338;53.240;8.798;2024-03-25T07:59:46;8.10;99.90
31765;DHT22;18338;53.240;8.798;2024-03-25T08:02:12;8.00;99.90
31765;DHT22;18338;53.240;8.798;2024-03-25T08:04:39;8.20;99.90
31765;DHT22;18338;53.240;8.798;2024-03-25T08:07:04;8.40;99.90
31765;DHT22;18338;53.240;8.798;2024-03-25T08:09:30;8.20;99.90
31765;DHT22;18338;53.240;8.798;2024-03-25T08:11:56;8.40;99.90
31765;DHT22;18338;53.240;8.798;2024-03-25T08:14:22;8.10;99.90
31765;DHT22;18338;53.240;8.798;2024-03-25T08:16:48;8.00;99.90
31765;DHT22;18338;53.240;8.798;2024-03-25T08:19:14;7.90;99.90
31765;DHT22;18338;53.240;8.798;2024-03-25T08:21:40;8.00;99.90
31765;DHT22;18338;53.240;8.798;2024-03-25T08:24:06;8.20;99.90
31765;DHT22;18338;53.240;8.798;2024-03-25T08:26:32;8.30;99.90
31765;DHT22;18338;53.240;8.798;2024-03-25T08:28:58;8.20;99.90
31765;DHT22;18338;53.240;8.798;2024-03-25T08:31:23;8.20;99.90
31765;DHT22;18338;53.240;8.798;2024-03-25T08:33:49;8.00;99.90
31765;DHT22;18338;53.240;8.798;2024-03-25T08:36:16;7.80;99.90
31765;DHT22;18338;53.240;8.798;2024-03-25T08:38:41;7.70;99.90
31765;DHT22;18338;53.240;8.798;2024-03-25T08:41:07;7.90;99.90
31765;DHT22;18338;53.240;8.798;2024-03-25T08:43:33;8.10;99.90
31765;DHT22;18338;53.240;8.798;2024-03-25T08:45:59;9.30;99.90
31765;DHT22;18338;53.240;8.798;2024-03-25T08:48:24;11.30;99.90
31765;DHT22;18338;53.240;8.798;2024-03-25T08:50:50;14.10;99.90
31765;DHT22;18338;53.240;8.798;2024-03-25T08:53:16;15.50;99.90
31765;DHT22;18338;53.240;8.798;2024-03-25T08:55:51;16.10;99.90
31765;DHT22;18338;53.240;8.798;2024-03-25T08:58:16;18.10;99.90
31765;DHT22;18338;53.240;8.798;2024-03-25T09:00:42;18.70;99.90
31765;DHT22;18338;53.240;8.798;2024-03-25T09:03:08;16.80;99.90
31765;DHT22;18338;53.240;8.798;2024-03-25T09:05:34;14.50;99.90
31765;DHT22;18338;53.240;8.798;2024-03-25T09:08:00;12.80;99.90
31765;DHT22;18338;53.240;8.798;2024-03-25T09:10:27;11.80;99.90
31765;DHT22;18338;53.240;8.798;2024-03-25T09:13:12;11.20;99.90
31765;DHT22;18338;53.240;8.798;2024-03-25T09:15:37;10.80;99.90
31765;DHT22;18338;53.240;8.798;2024-03-25T09:18:03;10.70;99.90
31765;DHT22;18338;53.240;8.798;2024-03-25T09:20:29;10.20;99.90
31765;DHT22;18338;53.240;8.798;2024-03-25T09:22:55;9.80;99.90
31765;DHT22;18338;53.240;8.798;2024-03-25T09:25:21;9.50;99.90
31765;DHT22;18338;53.240;8.798;2024-03-25T09:27:48;9.60;99.90
31765;DHT22;18338;53.240;8.798;2024-03-25T09:30:14;10.20;99.90
31765;DHT22;18338;53.240;8.798;2024-03-25T09:32:40;10.10;99.90
31765;DHT22;18338;53.240;8.798;2024-03-25T09:35:07;9.90;99.90
31765;DHT22;18338;53.240;8.798;2024-03-25T09:37:33;9.90;99.90
31765;DHT22;18338;53.240;8.798;2024-03-25T09:39:59;10.40;99.90
31765;DHT22;18338;53.240;8.798;2024-03-25T09:42:33;10.70;99.90
31765;DHT22;18338;53.240;8.798;2024-03-25T09:44:59;11.10;99.90
31765;DHT22;18338;53.240;8.798;2024-03-25T09:47:25;10.80;99.90
31765;DHT22;18338;53.240;8.798;2024-03-25T09:49:54;10.80;99.90
31765;DHT22;18338;53.240;8.798;2024-03-25T09:52:20;10.70;99.90
31765;DHT22;18338;53.240;8.798;2024-03-25T09:54:46;10.40;99.90
31765;DHT22;18338;53.240;8.798;2024-03-25T09:57:12;10.20;99.90
31765;DHT22;18338;53.240;8.798;2024-03-25T09:59:38;9.90;99.90
31765;DHT22;18338;53.240;8.798;2024-03-25T10:02:05;10.00;99.90
31765;DHT22;18338;53.240;8.798;2024-03-25T10:04:32;10.20;99.90
31765;DHT22;18338;53.240;8.798;2024-03-25T10:06:59;10.40;99.90
31765;DHT22;18338;53.240;8.798;2024-03-25T10:09:25;10.20;99.90
31765;DHT22;18338;53.240;8.798;2024-03-25T10:11:51;10.00;99.90
31765;DHT22;18338;53.240;8.798;2024-03-25T10:14:17;10.00;99.90
31765;DHT22;18338;53.240;8.798;2024-03-25T10:16:44;9.70;99.90
31765;DHT22;18338;53.240;8.798;2024-03-25T10:19:10;9.90;99.90
31765;DHT22;18338;53.240;8.798;2024-03-25T10:21:36;9.90;99.90
31765;DHT22;18338;53.240;8.798;2024-03-25T10:24:04;9.90;99.90
31765;DHT22;18338;53.240;8.798;2024-03-25T10:26:31;9.90;99.90
31765;DHT22;18338;53.240;8.798;2024-03-25T10:29:05;9.80;99.90
31765;DHT22;18338;53.240;8.798;2024-03-25T10:31:32;9.60;99.90
31765;DHT22;18338;53.240;8.798;2024-03-25T10:33:58;9.30;99.90
31765;DHT22;18338;53.240;8.798;2024-03-25T10:36:24;9.20;99.90
31765;DHT22;18338;53.240;8.798;2024-03-25T10:39:02;9.30;99.90
31765;DHT22;18338;53.240;8.798;2024-03-25T10:41:28;9.40;99.90
31765;DHT22;18338;53.240;8.798;2024-03-25T10:43:55;9.60;99.90
31765;DHT22;18338;53.240;8.798;2024-03-25T10:46:24;9.90;99.90
31765;DHT22;18338;53.240;8.798;2024-03-25T10:49:07;10.50;99.90
31765;DHT22;18338;53.240;8.798;2024-03-25T10:51:36;11.30;99.90
31765;DHT22;18338;53.240;8.798;2024-03-25T10:54:03;11.40;99.90
31765;DHT22;18338;53.240;8.798;2024-03-25T10:56:29;11.10;99.90
31765;DHT22;18338;53.240;8.798;2024-03-25T10:58:56;11.10;99.90
31765;DHT22;18338;53.240;8.798;2024-03-25T11:01:23;11.20;99.90
31765;DHT22;18338;53.240;8.798;2024-03-25T11:03:50;11.50;99.90
31765;DHT22;18338;53.240;8.798;2024-03-25T11:06:16;11.20;99.90
31765;DHT22;18338;53.240;8.798;2024-03-25T11:08:44;10.80;99.90
31765;DHT22;18338;53.240;8.798;2024-03-25T11:11:13;10.40;99.90
31765;DHT22;18338;53.240;8.798;2024-03-25T11:13:41;10.30;99.90
31765;DHT22;18338;53.240;8.798;2024-03-25T11:16:07;10.20;99.90
31765;DHT22;18338;53.240;8.798;2024-03-25T11:18:35;10.40;99.90
31765;DHT22;18338;53.240;8.798;2024-03-25T11:21:05;10.80;99.90
31765;DHT22;18338;53.240;8.798;2024-03-25T11:23:41;11.60;99.90
31765;DHT22;18338;53.240;8.798;2024-03-25T11:26:34;12.10;99.90
31765;DHT22;18338;53.240;8.798;2024-03-25T11:29:03;12.30;99.90
31765;DHT22;18338;53.240;8.798;2024-03-25T11:31:29;12.90;99.90
31765;DHT22;18338;53.240;8.798;2024-03-25T11:34:04;12.90;99.90
31765;DHT22;18338;53.240;8.798;2024-03-25T11:36:30;13.10;99.90
31765;DHT22;18338;53.240;8.798;2024-03-25T11:39:03;13.30;99.90
31765;DHT22;18338;53.240;8.798;2024-03-25T11:41:33;14.70;99.90
31765;DHT22;18338;53.240;8.798;2024-03-25T11:43:59;16.90;99.90
31765;DHT22;18338;53.240;8.798;2024-03-25T11:46:26;16.80;99.90
31765;DHT22;18338;53.240;8.798;2024-03-25T11:48:53;16.20;99.90
31765;DHT22;18338;53.240;8.798;2024-03-25T11:51:19;15.80;99.90
31765;DHT22;18338;53.240;8.798;2024-03-25T11:53:45;14.90;99.90
31765;DHT22;18338;53.240;8.798;2024-03-25T11:56:11;14.30;99.90
31765;DHT22;18338;53.240;8.798;2024-03-25T11:58:40;12.90;99.90
31765;DHT22;18338;53.240;8.798;2024-03-25T12:01:06;11.80;99.90
31765;DHT22;18338;53.240;8.798;2024-03-25T12:03:33;11.10;99.90
31765;DHT22;18338;53.240;8.798;2024-03-25T12:05:59;10.90;99.90
31765;DHT22;18338;53.240;8.798;2024-03-25T12:08:25;10.60;99.90
31765;DHT22;18338;53.240;8.798;2024-03-25T12:10:52;10.30;99.90
31765;DHT22;18338;53.240;8.798;2024-03-25T12:13:38;10.30;99.90
31765;DHT22;18338;53.240;8.798;2024-03-25T12:16:08;10.40;99.90
31765;DHT22;18338;53.240;8.798;2024-03-25T12:18:35;10.80;99.90
31765;DHT22;18338;53.240;8.798;2024-03-25T12:21:04;11.00;99.90
31765;DHT22;18338;53.240;8.798;2024-03-25T12:23:31;11.50;99.90
31765;DHT22;18338;53.240;8.798;2024-03-25T12:26:02;12.10;99.90
31765;DHT22;18338;53.240;8.798;2024-03-25T12:28:31;14.80;99.90
31765;DHT22;18338;53.240;8.798;2024-03-25T12:30:57;19.70;99.90
31765;DHT22;18338;53.240;8.798;2024-03-25T12:33:25;22.50;94.90
31765;DHT22;18338;53.240;8.798;2024-03-25T12:35:52;21.40;90.30
31765;DHT22;18338;53.240;8.798;2024-03-25T12:38:30;20.80;91.90
31765;DHT22;18338;53.240;8.798;2024-03-25T12:41:04;21.60;89.90
31765;DHT22;18338;53.240;8.798;2024-03-25T12:43:34;19.60;91.00
31765;DHT22;18338;53.240;8.798;2024-03-25T12:46:01;20.10;91.10
31765;DHT22;18338;53.240;8.798;2024-03-25T12:48:27;21.40;87.80
31765;DHT22;18338;53.240;8.798;2024-03-25T12:50:52;21.00;88.90
31765;DHT22;18338;53.240;8.798;2024-03-25T12:53:21;22.20;83.20
31765;DHT22;18338;53.240;8.798;2024-03-25T12:55:47;23.80;80.60
31765;DHT22;18338;53.240;8.798;2024-03-25T12:58:13;23.80;74.50
31765;DHT22;18338;53.240;8.798;2024-03-25T13:00:39;22.50;74.20
31765;DHT22;18338;53.240;8.798;2024-03-25T13:03:07;22.60;75.00
31765;DHT22;18338;53.240;8.798;2024-03-25T13:05:34;21.80;74.00
31765;DHT22;18338;53.240;8.798;2024-03-25T13:08:00;22.10;74.90
31765;DHT22;18338;53.240;8.798;2024-03-25T13:10:27;22.70;76.10
31765;DHT22;18338;53.240;8.798;2024-03-25T13:12:54;22.50;72.80
31765;DHT22;18338;53.240;8.798;2024-03-25T13:15:20;21.00;74.00
31765;DHT22;18338;53.240;8.798;2024-03-25T13:17:46;21.40;74.90
31765;DHT22;18338;53.240;8.798;2024-03-25T13:20:12;22.60;71.30
31765;DHT22;18338;53.240;8.798;2024-03-25T13:22:39;23.30;71.00
31765;DHT22;18338;53.240;8.798;2024-03-25T13:25:06;21.80;72.80
31765;DHT22;18338;53.240;8.798;2024-03-25T13:27:32;22.00;73.50
31765;DHT22;18338;53.240;8.798;2024-03-25T13:29:58;21.30;73.30
31765;DHT22;18338;53.240;8.798;2024-03-25T13:32:24;21.60;74.20
31765;DHT22;18338;53.240;8.798;2024-03-25T13:34:50;21.00;72.20
31765;DHT22;18338;53.240;8.798;2024-03-25T13:37:16;20.00;74.90
31765;DHT22;18338;53.240;8.798;2024-03-25T13:39:42;19.00;76.20
31765;DHT22;18338;53.240;8.798;2024-03-25T13:42:07;18.30;78.70
31765;DHT22;18338;53.240;8.798;2024-03-25T13:44:33;17.70;80.50
31765;DHT22;18338;53.240;8.798;2024-03-25T13:46:59;16.80;81.80
31765;DHT22;18338;53.240;8.798;2024-03-25T13:49:25;16.10;83.00
31765;DHT22;18338;53.240;8.798;2024-03-25T13:51:56;15.60;85.40
31765;DHT22;18338;53.240;8.798;2024-03-25T13:54:22;15.00;89.80
31765;DHT22;18338;53.240;8.798;2024-03-25T13:56:48;15.70;95.90
31765;DHT22;18338;53.240;8.798;2024-03-25T13:59:14;17.80;85.20
31765;DHT22;18338;53.240;8.798;2024-03-25T14:01:40;19.70;81.00
31765;DHT22;18338;53.240;8.798;2024-03-25T14:04:06;19.70;80.60
31765;DHT22;18338;53.240;8.798;2024-03-25T14:06:32;19.70;82.20
31765;DHT22;18338;53.240;8.798;2024-03-25T14:08:59;19.80;83.20
31765;DHT22;18338;53.240;8.798;2024-03-25T14:11:25;19.90;81.00
31765;DHT22;18338;53.240;8.798;2024-03-25T14:13:51;19.10;80.20
31765;DHT22;18338;53.240;8.798;2024-03-25T14:16:16;20.70;79.70
31765;DHT22;18338;53.240;8.798;2024-03-25T14:18:42;21.70;74.00
31765;DHT22;18338;53.240;8.798;2024-03-25T14:21:08;22.70;77.20
31765;DHT22;18338;53.240;8.798;2024-03-25T14:23:34;23.30;73.70
31765;DHT22;18338;53.240;8.798;2024-03-25T14:26:00;21.60;71.60
31765;DHT22;18338;53.240;8.798;2024-03-25T14:28:25;20.00;75.40
31765;DHT22;18338;53.240;8.798;2024-03-25T14:30:51;18.40;80.30
31765;DHT22;18338;53.240;8.798;2024-03-25T14:33:17;17.60;82.30
31765;DHT22;18338;53.240;8.798;2024-03-25T14:35:43;15.90;83.80
31765;DHT22;18338;53.240;8.798;2024-03-25T14:38:09;14.90;91.00
31765;DHT22;18338;53.240;8.798;2024-03-25T14:40:38;13.90;94.30
31765;DHT22;18338;53.240;8.798;2024-03-25T14:43:04;13.10;96.60
31765;DHT22;18338;53.240;8.798;2024-03-25T14:45:30;12.80;99.90
31765;DHT22;18338;53.240;8.798;2024-03-25T14:47:56;12.30;99.90
31765;DHT22;18338;53.240;8.798;2024-03-25T14:50:21;12.10;99.90
31765;DHT22;18338;53.240;8.798;2024-03-25T14:52:47;11.90;99.90
31765;DHT22;18338;53.240;8.798;2024-03-25T14:55:13;11.80;99.90
31765;DHT22;18338;53.240;8.798;2024-03-25T14:57:39;11.60;99.90
31765;DHT22;18338;53.240;8.798;2024-03-25T15:00:05;11.60;99.90
31765;DHT22;18338;53.240;8.798;2024-03-25T15:02:31;12.00;99.90
31765;DHT22;18338;53.240;8.798;2024-03-25T15:04:57;12.10;99.90
31765;DHT22;18338;53.240;8.798;2024-03-25T15:07:22;12.20;99.90
31765;DHT22;18338;53.240;8.798;2024-03-25T15:09:48;12.50;99.90
31765;DHT22;18338;53.240;8.798;2024-03-25T15:12:14;13.00;99.90
31765;DHT22;18338;53.240;8.798;2024-03-25T15:14:40;13.10;99.90
31765;DHT22;18338;53.240;8.798;2024-03-25T15:17:05;13.00;99.90
31765;DHT22;18338;53.240;8.798;2024-03-25T15:19:33;12.90;99.90
31765;DHT22;18338;53.240;8.798;2024-03-25T15:21:58;13.20;99.90
31765;DHT22;18338;53.240;8.798;2024-03-25T15:24:24;13.40;99.90
31765;DHT22;18338;53.240;8.798;2024-03-25T15:26:50;13.20;99.90
31765;DHT22;18338;53.240;8.798;2024-03-25T15:29:15;12.90;99.90
31765;DHT22;18338;53.240;8.798;2024-03-25T15:31:41;12.90;99.90
31765;DHT22;18338;53.240;8.798;2024-03-25T15:34:07;13.40;99.90
31765;DHT22;18338;53.240;8.798;2024-03-25T15:36:33;13.80;99.90